sensor_id;sensor_type;location;lat;lon;timestamp;pressure;altitude;pressure_sealevel;temperature;humidity
54329;BME280;40710;51.120;13.136;2022-07-29T00:00:53;99563.78;;;20.14;43.49
54329;BME280;40710;51.120;13.136;2022-07-29T00:03:17;99563.47;;;19.97;44.09
54329;BME280;40710;51.120;13.136;2022-07-29T00:05:42;99559.00;;;20.17;43.60
54329;BME280;40710;51.120;13.136;2022-07-29T00:08:10;99556.91;;;20.21;43.54
54329;BME280;40710;51.120;13.136;2022-07-29T00:10:34;99558.69;;;20.01;44.19
54329;BME280;40710;51.120;13.136;2022-07-29T00:12:59;99552.66;;;19.99;44.04
54329;BME280;40710;51.120;13.136;2022-07-29T00:15:23;99545.19;;;19.83;44.36
54329;BME280;40710;51.120;13.136;2022-07-29T00:17:47;99541.97;;;19.89;44.12
54329;BME280;40710;51.120;13.136;2022-07-29T00:20:12;99539.72;;;19.85;44.36
54329;BME280;40710;51.120;13.136;2022-07-29T00:22:37;99531.59;;;19.96;43.96
54329;BME280;40710;51.120;13.136;2022-07-29T00:25:02;99542.00;;;19.99;43.80
54329;BME280;40710;51.120;13.136;2022-07-29T00:27:27;99526.13;;;20.07;43.53
54329;BME280;40710;51.120;13.136;2022-07-29T00:29:51;99535.00;;;20.08;43.78
54329;BME280;40710;51.120;13.136;2022-07-29T00:32:15;99530.72;;;19.86;44.05
54329;BME280;40710;51.120;13.136;2022-07-29T00:34:40;99532.97;;;19.80;44.61
54329;BME280;40710;51.120;13.136;2022-07-29T00:37:23;99524.44;;;19.87;44.43
54329;BME280;40710;51.120;13.136;2022-07-29T00:39:47;99522.03;;;19.83;44.60
54329;BME280;40710;51.120;13.136;2022-07-29T00:42:12;99517.69;;;20.02;43.92
54329;BME280;40710;51.120;13.136;2022-07-29T00:44:40;99513.91;;;19.85;44.50
54329;BME280;40710;51.120;13.136;2022-07-29T00:47:05;99511.25;;;19.54;45.35
54329;BME280;40710;51.120;13.136;2022-07-29T00:49:30;99501.84;;;19.60;45.11
54329;BME280;40710;51.120;13.136;2022-07-29T00:51:54;99503.63;;;19.40;45.61
54329;BME280;40710;51.120;13.136;2022-07-29T00:54:18;99504.56;;;19.29;45.65
54329;BME280;40710;51.120;13.136;2022-07-29T00:56:43;99493.78;;;19.40;45.80
54329;BME280;40710;51.120;13.136;2022-07-29T00:59:08;99490.19;;;19.51;45.33
54329;BME280;40710;51.120;13.136;2022-07-29T01:01:32;99503.31;;;19.33;45.54
54329;BME280;40710;51.120;13.136;2022-07-29T01:03:56;99497.84;;;19.25;45.83
54329;BME280;40710;51.120;13.136;2022-07-29T01:06:21;99496.50;;;19.10;46.62
54329;BME280;40710;51.120;13.136;2022-07-29T01:08:47;99500.91;;;18.99;46.72
54329;BME280;40710;51.120;13.136;2022-07-29T01:11:12;99488.50;;;19.10;46.68
54329;BME280;40710;51.120;13.136;2022-07-29T01:13:37;99495.94;;;19.16;46.49
54329;BME280;40710;51.120;13.136;2022-07-29T01:16:11;99496.75;;;19.06;46.97
54329;BME280;40710;51.120;13.136;2022-07-29T01:18:44;99493.34;;;19.35;45.81
54329;BME280;40710;51.120;13.136;2022-07-29T01:24:39;99497.34;;;18.89;47.46
54329;BME280;40710;51.120;13.136;2022-07-29T01:30:06;99488.78;;;18.85;47.70
54329;BME280;40710;51.120;13.136;2022-07-29T01:32:34;99487.72;;;18.98;47.45
54329;BME280;40710;51.120;13.136;2022-07-29T01:37:55;99484.09;;;18.78;47.98
54329;BME280;40710;51.120;13.136;2022-07-29T01:40:30;99483.13;;;19.00;47.24
54329;BME280;40710;51.120;13.136;2022-07-29T01:43:00;99476.16;;;19.08;46.98
54329;BME280;40710;51.120;13.136;2022-07-29T01:45:38;99479.56;;;18.89;47.91
54329;BME280;40710;51.120;13.136;2022-07-29T01:48:22;99479.75;;;18.77;48.24
54329;BME280;40710;51.120;13.136;2022-07-29T01:50:53;99481.69;;;18.75;48.21
54329;BME280;40710;51.120;13.136;2022-07-29T01:53:28;99469.22;;;18.75;48.01
54329;BME280;40710;51.120;13.136;2022-07-29T01:55:54;99469.59;;;18.70;48.44
54329;BME280;40710;51.120;13.136;2022-07-29T01:58:20;99475.34;;;18.87;48.15
54329;BME280;40710;51.120;13.136;2022-07-29T02:00:46;99473.66;;;18.86;48.15
54329;BME280;40710;51.120;13.136;2022-07-29T02:03:12;99471.31;;;18.93;47.96
54329;BME280;40710;51.120;13.136;2022-07-29T02:05:39;99468.97;;;18.99;47.86
54329;BME280;40710;51.120;13.136;2022-07-29T02:08:05;99465.84;;;18.94;47.82
54329;BME280;40710;51.120;13.136;2022-07-29T02:10:32;99469.00;;;19.09;47.62
54329;BME280;40710;51.120;13.136;2022-07-29T02:12:58;99471.63;;;18.99;48.14
54329;BME280;40710;51.120;13.136;2022-07-29T02:15:29;99466.88;;;19.03;48.23
54329;BME280;40710;51.120;13.136;2022-07-29T02:18:14;99473.75;;;19.05;47.80
54329;BME280;40710;51.120;13.136;2022-07-29T02:20:42;99468.84;;;18.80;48.49
54329;BME280;40710;51.120;13.136;2022-07-29T02:23:10;99461.09;;;18.77;48.79
54329;BME280;40710;51.120;13.136;2022-07-29T02:25:37;99457.66;;;18.86;48.54
54329;BME280;40710;51.120;13.136;2022-07-29T02:28:02;99453.78;;;18.90;48.65
54329;BME280;40710;51.120;13.136;2022-07-29T02:30:27;99450.84;;;18.93;48.33
54329;BME280;40710;51.120;13.136;2022-07-29T02:32:53;99451.84;;;19.02;48.11
54329;BME280;40710;51.120;13.136;2022-07-29T02:35:19;99451.38;;;18.87;48.63
54329;BME280;40710;51.120;13.136;2022-07-29T02:37:45;99448.72;;;18.66;49.19
54329;BME280;40710;51.120;13.136;2022-07-29T02:40:31;99457.78;;;18.63;49.34
54329;BME280;40710;51.120;13.136;2022-07-29T02:42:55;99451.63;;;18.63;49.27
54329;BME280;40710;51.120;13.136;2022-07-29T02:45:20;99449.69;;;18.65;49.19
54329;BME280;40710;51.120;13.136;2022-07-29T02:47:48;99455.66;;;18.78;48.82
54329;BME280;40710;51.120;13.136;2022-07-29T02:50:17;99459.09;;;18.69;49.25
54329;BME280;40710;51.120;13.136;2022-07-29T02:52:47;99460.19;;;18.66;49.07
54329;BME280;40710;51.120;13.136;2022-07-29T02:55:37;99457.41;;;18.68;49.31
54329;BME280;40710;51.120;13.136;2022-07-29T03:00:53;99457.66;;;18.44;49.61
54329;BME280;40710;51.120;13.136;2022-07-29T03:03:20;99461.44;;;18.20;49.88
54329;BME280;40710;51.120;13.136;2022-07-29T03:05:45;99455.41;;;18.18;50.29
54329;BME280;40710;51.120;13.136;2022-07-29T03:08:11;99453.91;;;18.25;50.27
54329;BME280;40710;51.120;13.136;2022-07-29T03:10:37;99448.97;;;18.42;49.83
54329;BME280;40710;51.120;13.136;2022-07-29T03:13:04;99439.13;;;18.32;50.41
54329;BME280;40710;51.120;13.136;2022-07-29T03:15:30;99445.03;;;18.36;50.39
54329;BME280;40710;51.120;13.136;2022-07-29T03:17:55;99445.03;;;18.36;50.40
54329;BME280;40710;51.120;13.136;2022-07-29T03:20:20;99442.94;;;18.40;50.12
54329;BME280;40710;51.120;13.136;2022-07-29T03:22:45;99450.13;;;18.49;49.95
54329;BME280;40710;51.120;13.136;2022-07-29T03:25:16;99451.38;;;18.66;49.41
54329;BME280;40710;51.120;13.136;2022-07-29T03:27:42;99446.88;;;18.66;49.25
54329;BME280;40710;51.120;13.136;2022-07-29T03:30:07;99446.28;;;18.53;49.79
54329;BME280;40710;51.120;13.136;2022-07-29T03:32:32;99441.69;;;18.44;50.02
54329;BME280;40710;51.120;13.136;2022-07-29T03:34:57;99447.03;;;18.44;49.96
54329;BME280;40710;51.120;13.136;2022-07-29T03:37:22;99441.44;;;18.47;49.79
54329;BME280;40710;51.120;13.136;2022-07-29T03:39:46;99440.78;;;18.33;50.03
54329;BME280;40710;51.120;13.136;2022-07-29T03:42:13;99442.75;;;18.31;49.75
54329;BME280;40710;51.120;13.136;2022-07-29T03:44:43;99446.97;;;18.34;49.65
54329;BME280;40710;51.120;13.136;2022-07-29T03:47:09;99442.50;;;18.35;49.98
54329;BME280;40710;51.120;13.136;2022-07-29T03:49:36;99436.66;;;18.41;50.32
54329;BME280;40710;51.120;13.136;2022-07-29T03:52:01;99438.66;;;18.48;49.90
54329;BME280;40710;51.120;13.136;2022-07-29T03:54:26;99440.06;;;18.52;49.74
54329;BME280;40710;51.120;13.136;2022-07-29T03:56:52;99445.06;;;18.46;49.92
54329;BME280;40710;51.120;13.136;2022-07-29T03:59:17;99445.94;;;18.46;50.05
54329;BME280;40710;51.120;13.136;2022-07-29T04:01:42;99449.69;;;18.65;49.88
54329;BME280;40710;51.120;13.136;2022-07-29T04:04:07;99446.09;;;18.55;50.10
54329;BME280;40710;51.120;13.136;2022-07-29T04:06:42;99456.25;;;18.82;49.28
54329;BME280;40710;51.120;13.136;2022-07-29T04:09:07;99454.50;;;18.71;49.54
54329;BME280;40710;51.120;13.136;2022-07-29T04:11:32;99448.97;;;18.84;49.47
54329;BME280;40710;51.120;13.136;2022-07-29T04:13:57;99454.94;;;18.97;49.17
54329;BME280;40710;51.120;13.136;2022-07-29T04:16:21;99454.63;;;18.91;49.49
54329;BME280;40710;51.120;13.136;2022-07-29T04:18:45;99451.25;;;18.88;49.41
54329;BME280;40710;51.120;13.136;2022-07-29T04:21:10;99453.50;;;18.93;49.35
54329;BME280;40710;51.120;13.136;2022-07-29T04:23:34;99453.34;;;18.85;49.44
54329;BME280;40710;51.120;13.136;2022-07-29T04:25:58;99449.69;;;18.86;49.19
54329;BME280;40710;51.120;13.136;2022-07-29T04:28:25;99458.78;;;18.83;49.56
54329;BME280;40710;51.120;13.136;2022-07-29T04:30:50;99451.84;;;18.92;49.76
54329;BME280;40710;51.120;13.136;2022-07-29T04:33:14;99453.78;;;18.90;49.70
54329;BME280;40710;51.120;13.136;2022-07-29T04:35:39;99452.34;;;18.86;49.77
54329;BME280;40710;51.120;13.136;2022-07-29T04:38:04;99452.44;;;19.05;49.31
54329;BME280;40710;51.120;13.136;2022-07-29T04:40:29;99459.75;;;18.82;50.02
54329;BME280;40710;51.120;13.136;2022-07-29T04:42:53;99459.97;;;19.00;49.56
54329;BME280;40710;51.120;13.136;2022-07-29T04:45:17;99447.53;;;19.01;49.16
54329;BME280;40710;51.120;13.136;2022-07-29T04:47:42;99452.09;;;19.20;49.04
54329;BME280;40710;51.120;13.136;2022-07-29T04:50:08;99460.38;;;19.26;48.79
54329;BME280;40710;51.120;13.136;2022-07-29T04:52:32;99451.41;;;19.27;49.40
54329;BME280;40710;51.120;13.136;2022-07-29T04:54:58;99457.91;;;19.44;49.08
54329;BME280;40710;51.120;13.136;2022-07-29T04:57:23;99458.13;;;19.32;49.58
54329;BME280;40710;51.120;13.136;2022-07-29T04:59:47;99457.09;;;19.54;49.39
54329;BME280;40710;51.120;13.136;2022-07-29T05:02:12;99449.53;;;19.59;49.24
54329;BME280;40710;51.120;13.136;2022-07-29T05:04:37;99445.19;;;19.68;48.85
54329;BME280;40710;51.120;13.136;2022-07-29T05:07:01;99443.41;;;19.88;48.71
54329;BME280;40710;51.120;13.136;2022-07-29T05:09:25;99439.94;;;19.97;48.70
54329;BME280;40710;51.120;13.136;2022-07-29T05:11:50;99437.41;;;19.95;48.30
54329;BME280;40710;51.120;13.136;2022-07-29T05:14:15;99447.91;;;19.77;48.99
54329;BME280;40710;51.120;13.136;2022-07-29T05:16:39;99445.41;;;19.76;49.46
54329;BME280;40710;51.120;13.136;2022-07-29T05:19:04;99450.72;;;19.86;49.10
54329;BME280;40710;51.120;13.136;2022-07-29T05:21:28;99440.06;;;19.95;48.86
54329;BME280;40710;51.120;13.136;2022-07-29T05:23:53;99439.06;;;19.96;48.66
54329;BME280;40710;51.120;13.136;2022-07-29T05:26:17;99439.63;;;20.19;48.25
54329;BME280;40710;51.120;13.136;2022-07-29T05:28:42;99439.78;;;20.37;47.72
54329;BME280;40710;51.120;13.136;2022-07-29T05:31:06;99436.25;;;20.37;48.05
54329;BME280;40710;51.120;13.136;2022-07-29T05:33:30;99437.75;;;20.49;47.30
54329;BME280;40710;51.120;13.136;2022-07-29T05:35:55;99432.44;;;20.69;45.84
54329;BME280;40710;51.120;13.136;2022-07-29T05:38:20;99434.91;;;20.80;44.70
54329;BME280;40710;51.120;13.136;2022-07-29T05:40:44;99426.16;;;20.88;43.90
54329;BME280;40710;51.120;13.136;2022-07-29T05:43:09;99432.31;;;20.98;43.27
54329;BME280;40710;51.120;13.136;2022-07-29T05:45:33;99433.47;;;20.95;44.02
54329;BME280;40710;51.120;13.136;2022-07-29T05:47:58;99424.72;;;21.03;44.18
54329;BME280;40710;51.120;13.136;2022-07-29T05:50:22;99423.81;;;21.12;43.86
54329;BME280;40710;51.120;13.136;2022-07-29T05:52:46;99424.19;;;21.27;43.44
54329;BME280;40710;51.120;13.136;2022-07-29T05:55:11;99419.44;;;21.49;42.85
54329;BME280;40710;51.120;13.136;2022-07-29T05:57:35;99422.66;;;21.52;42.85
54329;BME280;40710;51.120;13.136;2022-07-29T05:59:59;99420.69;;;21.73;42.93
54329;BME280;40710;51.120;13.136;2022-07-29T06:02:24;99414.91;;;21.95;43.05
54329;BME280;40710;51.120;13.136;2022-07-29T06:04:48;99420.63;;;22.00;42.42
54329;BME280;40710;51.120;13.136;2022-07-29T06:07:13;99419.94;;;22.16;42.08
54329;BME280;40710;51.120;13.136;2022-07-29T06:09:37;99410.56;;;22.38;41.81
54329;BME280;40710;51.120;13.136;2022-07-29T06:12:02;99416.06;;;22.55;42.23
54329;BME280;40710;51.120;13.136;2022-07-29T06:14:27;99414.22;;;22.55;41.42
54329;BME280;40710;51.120;13.136;2022-07-29T06:16:52;99417.47;;;22.67;40.75
54329;BME280;40710;51.120;13.136;2022-07-29T06:19:17;99414.44;;;22.96;40.39
54329;BME280;40710;51.120;13.136;2022-07-29T06:21:46;99419.47;;;22.99;40.73
54329;BME280;40710;51.120;13.136;2022-07-29T06:24:12;99424.94;;;23.16;40.65
54329;BME280;40710;51.120;13.136;2022-07-29T06:26:36;99423.69;;;23.28;40.87
54329;BME280;40710;51.120;13.136;2022-07-29T06:29:01;99421.94;;;23.19;40.73
54329;BME280;40710;51.120;13.136;2022-07-29T06:31:25;99408.78;;;23.34;40.61
54329;BME280;40710;51.120;13.136;2022-07-29T06:33:49;99414.75;;;23.19;41.43
54329;BME280;40710;51.120;13.136;2022-07-29T06:36:14;99414.81;;;23.36;41.63
54329;BME280;40710;51.120;13.136;2022-07-29T06:38:38;99415.88;;;23.51;41.22
54329;BME280;40710;51.120;13.136;2022-07-29T06:41:02;99419.91;;;23.64;41.12
54329;BME280;40710;51.120;13.136;2022-07-29T06:43:33;99417.28;;;23.96;40.00
54329;BME280;40710;51.120;13.136;2022-07-29T06:45:59;99423.53;;;23.97;40.27
54329;BME280;40710;51.120;13.136;2022-07-29T06:48:26;99421.84;;;23.88;40.53
54329;BME280;40710;51.120;13.136;2022-07-29T06:50:50;99418.47;;;24.10;40.10
54329;BME280;40710;51.120;13.136;2022-07-29T06:53:15;99430.06;;;24.11;40.23
54329;BME280;40710;51.120;13.136;2022-07-29T06:55:39;99417.97;;;24.07;39.88
54329;BME280;40710;51.120;13.136;2022-07-29T06:58:03;99416.16;;;24.07;39.80
54329;BME280;40710;51.120;13.136;2022-07-29T07:00:28;99419.50;;;24.09;39.79
54329;BME280;40710;51.120;13.136;2022-07-29T07:02:52;99418.16;;;24.22;39.97
54329;BME280;40710;51.120;13.136;2022-07-29T07:05:16;99422.81;;;24.52;38.99
54329;BME280;40710;51.120;13.136;2022-07-29T07:07:41;99425.34;;;24.46;39.72
54329;BME280;40710;51.120;13.136;2022-07-29T07:10:05;99423.16;;;24.74;39.44
54329;BME280;40710;51.120;13.136;2022-07-29T07:12:30;99419.28;;;24.77;39.71
54329;BME280;40710;51.120;13.136;2022-07-29T07:14:54;99421.63;;;24.88;39.34
54329;BME280;40710;51.120;13.136;2022-07-29T07:17:18;99408.41;;;25.09;38.59
54329;BME280;40710;51.120;13.136;2022-07-29T07:19:43;99406.97;;;25.38;37.42
54329;BME280;40710;51.120;13.136;2022-07-29T07:22:07;99399.81;;;25.54;37.32
54329;BME280;40710;51.120;13.136;2022-07-29T07:24:32;99403.06;;;25.49;36.75
54329;BME280;40710;51.120;13.136;2022-07-29T07:26:56;99396.00;;;25.71;36.31
54329;BME280;40710;51.120;13.136;2022-07-29T07:29:20;99396.91;;;25.87;36.72
54329;BME280;40710;51.120;13.136;2022-07-29T07:31:45;99396.34;;;25.99;36.52
54329;BME280;40710;51.120;13.136;2022-07-29T07:34:09;99380.72;;;26.18;35.41
54329;BME280;40710;51.120;13.136;2022-07-29T07:36:34;99387.41;;;26.22;35.31
54329;BME280;40710;51.120;13.136;2022-07-29T07:38:58;99384.28;;;26.33;34.85
54329;BME280;40710;51.120;13.136;2022-07-29T07:41:22;99379.97;;;26.24;34.73
54329;BME280;40710;51.120;13.136;2022-07-29T07:43:47;99391.03;;;26.29;36.07
54329;BME280;40710;51.120;13.136;2022-07-29T07:46:11;99390.41;;;26.42;35.24
54329;BME280;40710;51.120;13.136;2022-07-29T07:48:35;99386.03;;;26.41;35.18
54329;BME280;40710;51.120;13.136;2022-07-29T07:51:00;99385.28;;;26.47;34.41
54329;BME280;40710;51.120;13.136;2022-07-29T07:53:24;99383.81;;;26.59;34.54
54329;BME280;40710;51.120;13.136;2022-07-29T07:55:49;99379.81;;;26.55;34.27
54329;BME280;40710;51.120;13.136;2022-07-29T07:58:13;99385.09;;;26.72;34.52
54329;BME280;40710;51.120;13.136;2022-07-29T08:00:37;99386.94;;;26.86;33.76
54329;BME280;40710;51.120;13.136;2022-07-29T08:03:02;99381.34;;;27.03;33.84
54329;BME280;40710;51.120;13.136;2022-07-29T08:05:26;99369.31;;;27.20;32.66
54329;BME280;40710;51.120;13.136;2022-07-29T08:07:51;99368.50;;;27.20;32.92
54329;BME280;40710;51.120;13.136;2022-07-29T08:10:16;99369.34;;;26.90;33.10
54329;BME280;40710;51.120;13.136;2022-07-29T08:13:04;99364.97;;;27.04;33.20
54329;BME280;40710;51.120;13.136;2022-07-29T08:15:28;99358.16;;;27.23;32.71
54329;BME280;40710;51.120;13.136;2022-07-29T08:17:53;99359.47;;;27.27;32.56
54329;BME280;40710;51.120;13.136;2022-07-29T08:20:17;99357.56;;;27.43;32.51
54329;BME280;40710;51.120;13.136;2022-07-29T08:22:41;99356.75;;;27.64;32.94
54329;BME280;40710;51.120;13.136;2022-07-29T08:25:06;99362.47;;;27.76;32.69
54329;BME280;40710;51.120;13.136;2022-07-29T08:27:30;99363.94;;;27.78;33.17
54329;BME280;40710;51.120;13.136;2022-07-29T08:29:56;99367.25;;;27.73;32.54
54329;BME280;40710;51.120;13.136;2022-07-29T08:32:21;99370.44;;;27.62;33.73
54329;BME280;40710;51.120;13.136;2022-07-29T08:34:45;99371.22;;;27.78;33.13
54329;BME280;40710;51.120;13.136;2022-07-29T08:37:10;99376.72;;;27.69;33.14
54329;BME280;40710;51.120;13.136;2022-07-29T08:39:34;99376.88;;;27.61;33.02
54329;BME280;40710;51.120;13.136;2022-07-29T08:41:59;99380.41;;;27.83;32.56
54329;BME280;40710;51.120;13.136;2022-07-29T08:44:23;99376.50;;;28.07;32.29
54329;BME280;40710;51.120;13.136;2022-07-29T08:46:48;99376.47;;;28.29;31.82
54329;BME280;40710;51.120;13.136;2022-07-29T08:49:13;99383.47;;;28.52;32.50
54329;BME280;40710;51.120;13.136;2022-07-29T08:51:40;99385.84;;;28.90;32.83
54329;BME280;40710;51.120;13.136;2022-07-29T08:54:05;99377.25;;;29.21;31.96
54329;BME280;40710;51.120;13.136;2022-07-29T08:56:30;99379.56;;;29.31;31.00
54329;BME280;40710;51.120;13.136;2022-07-29T08:58:54;99374.75;;;29.94;31.06
54329;BME280;40710;51.120;13.136;2022-07-29T09:01:25;99374.53;;;30.09;30.86
54329;BME280;40710;51.120;13.136;2022-07-29T09:03:54;99376.19;;;30.24;31.39
54329;BME280;40710;51.120;13.136;2022-07-29T09:06:21;99374.75;;;30.21;31.38
54329;BME280;40710;51.120;13.136;2022-07-29T09:08:45;99363.69;;;29.89;30.84
54329;BME280;40710;51.120;13.136;2022-07-29T09:11:11;99365.13;;;30.12;30.86
54329;BME280;40710;51.120;13.136;2022-07-29T09:13:35;99360.56;;;30.32;30.86
54329;BME280;40710;51.120;13.136;2022-07-29T09:16:00;99358.63;;;30.73;30.02
54329;BME280;40710;51.120;13.136;2022-07-29T09:18:35;99356.56;;;30.68;30.36
54329;BME280;40710;51.120;13.136;2022-07-29T09:21:00;99357.00;;;30.59;29.90
54329;BME280;40710;51.120;13.136;2022-07-29T09:24:13;99357.00;;;30.25;30.29
54329;BME280;40710;51.120;13.136;2022-07-29T09:26:43;99352.44;;;30.19;30.19
54329;BME280;40710;51.120;13.136;2022-07-29T09:29:15;99348.69;;;30.07;30.65
54329;BME280;40710;51.120;13.136;2022-07-29T09:31:42;99357.59;;;29.67;31.51
54329;BME280;40710;51.120;13.136;2022-07-29T09:34:08;99352.41;;;29.72;31.65
54329;BME280;40710;51.120;13.136;2022-07-29T09:36:43;99347.44;;;29.83;30.15
54329;BME280;40710;51.120;13.136;2022-07-29T09:39:08;99346.16;;;29.72;30.92
54329;BME280;40710;51.120;13.136;2022-07-29T09:41:52;99339.47;;;29.74;30.80
54329;BME280;40710;51.120;13.136;2022-07-29T09:44:17;99339.09;;;29.91;30.30
54329;BME280;40710;51.120;13.136;2022-07-29T09:46:55;99340.13;;;30.10;30.29
54329;BME280;40710;51.120;13.136;2022-07-29T09:49:20;99340.53;;;30.27;30.32
54329;BME280;40710;51.120;13.136;2022-07-29T09:51:44;99338.03;;;29.78;30.97
54329;BME280;40710;51.120;13.136;2022-07-29T09:54:24;99332.03;;;30.37;30.01
54329;BME280;40710;51.120;13.136;2022-07-29T09:56:52;99335.69;;;30.62;29.93
54329;BME280;40710;51.120;13.136;2022-07-29T09:59:17;99328.94;;;30.91;29.05
54329;BME280;40710;51.120;13.136;2022-07-29T10:01:42;99332.53;;;30.79;29.90
54329;BME280;40710;51.120;13.136;2022-07-29T10:04:06;99325.97;;;31.06;30.03
54329;BME280;40710;51.120;13.136;2022-07-29T10:06:30;99315.84;;;31.27;29.85
54329;BME280;40710;51.120;13.136;2022-07-29T10:09:06;99323.47;;;31.05;29.50
54329;BME280;40710;51.120;13.136;2022-07-29T10:11:31;99311.16;;;31.41;29.16
54329;BME280;40710;51.120;13.136;2022-07-29T10:13:56;99313.44;;;31.76;28.30
54329;BME280;40710;51.120;13.136;2022-07-29T10:16:20;99303.91;;;31.92;28.22
54329;BME280;40710;51.120;13.136;2022-07-29T10:18:44;99304.66;;;31.80;28.23
54329;BME280;40710;51.120;13.136;2022-07-29T10:21:11;99306.41;;;31.93;28.15
54329;BME280;40710;51.120;13.136;2022-07-29T10:23:36;99309.34;;;31.92;28.49
54329;BME280;40710;51.120;13.136;2022-07-29T10:26:02;99305.22;;;32.14;28.75
54329;BME280;40710;51.120;13.136;2022-07-29T10:28:27;99294.34;;;32.14;28.21
54329;BME280;40710;51.120;13.136;2022-07-29T10:30:52;99301.28;;;32.10;28.46
54329;BME280;40710;51.120;13.136;2022-07-29T10:33:37;99300.91;;;32.00;28.47
54329;BME280;40710;51.120;13.136;2022-07-29T10:36:19;99297.97;;;32.27;27.60
54329;BME280;40710;51.120;13.136;2022-07-29T10:41:34;99299.66;;;32.46;27.30
54329;BME280;40710;51.120;13.136;2022-07-29T10:44:04;99285.38;;;32.69;26.97
54329;BME280;40710;51.120;13.136;2022-07-29T10:46:38;99284.63;;;32.62;26.39
54329;BME280;40710;51.120;13.136;2022-07-29T10:49:11;99281.06;;;32.80;26.17
54329;BME280;40710;51.120;13.136;2022-07-29T10:51:54;99279.06;;;33.06;26.08
54329;BME280;40710;51.120;13.136;2022-07-29T10:54:38;99284.34;;;33.01;26.71
54329;BME280;40710;51.120;13.136;2022-07-29T10:59:43;99285.81;;;33.76;25.36
54329;BME280;40710;51.120;13.136;2022-07-29T11:05:01;99283.00;;;33.52;25.83
54329;BME280;40710;51.120;13.136;2022-07-29T11:07:27;99276.38;;;33.48;26.22
54329;BME280;40710;51.120;13.136;2022-07-29T11:15:00;99279.50;;;33.21;26.43
54329;BME280;40710;51.120;13.136;2022-07-29T11:17:27;99274.78;;;33.70;25.68
54329;BME280;40710;51.120;13.136;2022-07-29T11:19:51;99271.38;;;33.33;26.28
54329;BME280;40710;51.120;13.136;2022-07-29T11:22:32;99273.59;;;33.66;25.97
54329;BME280;40710;51.120;13.136;2022-07-29T11:25:17;99271.22;;;33.82;25.59
54329;BME280;40710;51.120;13.136;2022-07-29T11:27:42;99264.38;;;34.38;25.14
54329;BME280;40710;51.120;13.136;2022-07-29T11:30:08;99263.28;;;34.27;25.30
54329;BME280;40710;51.120;13.136;2022-07-29T11:32:41;99261.41;;;34.40;24.86
54329;BME280;40710;51.120;13.136;2022-07-29T11:35:20;99258.66;;;34.16;25.27
54329;BME280;40710;51.120;13.136;2022-07-29T11:37:47;99254.47;;;34.61;24.94
54329;BME280;40710;51.120;13.136;2022-07-29T11:40:31;99258.47;;;34.82;24.94
54329;BME280;40710;51.120;13.136;2022-07-29T11:42:55;99247.25;;;34.95;25.03
54329;BME280;40710;51.120;13.136;2022-07-29T11:45:23;99243.50;;;34.84;25.09
54329;BME280;40710;51.120;13.136;2022-07-29T11:47:55;99243.97;;;34.81;24.75
54329;BME280;40710;51.120;13.136;2022-07-29T11:50:34;99237.06;;;34.91;24.74
54329;BME280;40710;51.120;13.136;2022-07-29T11:53:00;99235.16;;;34.91;24.36
54329;BME280;40710;51.120;13.136;2022-07-29T11:55:25;99236.25;;;34.78;26.07
54329;BME280;40710;51.120;13.136;2022-07-29T11:57:55;99231.34;;;34.52;25.36
54329;BME280;40710;51.120;13.136;2022-07-29T12:00:28;99228.34;;;33.89;25.22
54329;BME280;40710;51.120;13.136;2022-07-29T12:02:54;99235.31;;;33.73;26.06
54329;BME280;40710;51.120;13.136;2022-07-29T12:05:20;99238.44;;;33.34;26.70
54329;BME280;40710;51.120;13.136;2022-07-29T12:07:45;99244.78;;;32.86;27.80
54329;BME280;40710;51.120;13.136;2022-07-29T12:10:10;99239.00;;;32.94;26.36
54329;BME280;40710;51.120;13.136;2022-07-29T12:12:35;99232.13;;;33.22;26.02
54329;BME280;40710;51.120;13.136;2022-07-29T12:15:12;99223.97;;;33.22;26.06
54329;BME280;40710;51.120;13.136;2022-07-29T12:17:37;99225.66;;;33.35;26.27
54329;BME280;40710;51.120;13.136;2022-07-29T12:20:03;99224.91;;;33.70;25.23
54329;BME280;40710;51.120;13.136;2022-07-29T12:22:30;99218.84;;;33.80;25.06
54329;BME280;40710;51.120;13.136;2022-07-29T12:24:55;99218.97;;;33.97;25.49
54329;BME280;40710;51.120;13.136;2022-07-29T12:27:24;99207.25;;;33.96;25.58
54329;BME280;40710;51.120;13.136;2022-07-29T12:29:56;99213.63;;;33.78;26.36
54329;BME280;40710;51.120;13.136;2022-07-29T12:32:21;99206.44;;;33.84;24.97
54329;BME280;40710;51.120;13.136;2022-07-29T12:34:46;99195.75;;;33.82;25.18
54329;BME280;40710;51.120;13.136;2022-07-29T12:37:10;99200.44;;;34.34;24.66
54329;BME280;40710;51.120;13.136;2022-07-29T12:39:35;99205.41;;;34.37;24.81
54329;BME280;40710;51.120;13.136;2022-07-29T12:41:59;99201.56;;;34.50;24.12
54329;BME280;40710;51.120;13.136;2022-07-29T12:44:24;99199.38;;;34.64;24.02
54329;BME280;40710;51.120;13.136;2022-07-29T12:47:03;99197.50;;;34.12;24.61
54329;BME280;40710;51.120;13.136;2022-07-29T12:49:27;99206.03;;;34.16;24.47
54329;BME280;40710;51.120;13.136;2022-07-29T12:51:52;99201.63;;;34.15;24.41
54329;BME280;40710;51.120;13.136;2022-07-29T12:54:16;99202.50;;;34.03;24.39
54329;BME280;40710;51.120;13.136;2022-07-29T12:56:42;99192.28;;;33.99;24.40
54329;BME280;40710;51.120;13.136;2022-07-29T12:59:17;99198.09;;;33.90;25.11
54329;BME280;40710;51.120;13.136;2022-07-29T13:01:43;99192.47;;;34.44;24.47
54329;BME280;40710;51.120;13.136;2022-07-29T13:04:08;99192.38;;;34.68;23.87
54329;BME280;40710;51.120;13.136;2022-07-29T13:06:45;99184.56;;;34.72;23.96
54329;BME280;40710;51.120;13.136;2022-07-29T13:09:12;99185.69;;;34.88;23.60
54329;BME280;40710;51.120;13.136;2022-07-29T13:11:51;99181.66;;;34.78;23.78
54329;BME280;40710;51.120;13.136;2022-07-29T13:14:32;99184.06;;;34.75;23.57